Time,TemperatureF,DewpointF,PressureIn,WindDirection,WindDirectionDegrees,WindSpeedMPH,WindSpeedGustMPH,Humidity,HourlyPrecipIn,Conditions,Clouds,dailyrainin,SoftwareType,DateUTC
2013-02-01 00:11:00,9.6,4.0,30.50,NW,306,4.0,8.0,76,0.00,,,0.00,weatherlink.com 1.10,2013-02-01 06:11:00,
2013-02-01 00:26:00,9.3,4.0,30.50,WNW,286,6.0,8.0,77,0.00,,,0.00,weatherlink.com 1.10,2013-02-01 06:26:00,
2013-02-01 00:41:00,8.8,3.0,30.50,WNW,292,4.0,6.0,78,0.00,,,0.00,weatherlink.com 1.10,2013-02-01 06:41:00,
2013-02-01 00:56:00,9.0,3.0,30.50,NW,313,6.0,8.0,78,0.00,,,0.00,weatherlink.com 1.10,2013-02-01 06:56:00,
2013-02-01 01:12:00,8.3,3.0,30.50,NW,311,4.0,8.0,79,0.00,,,0.00,weatherlink.com 1.10,2013-02-01 07:12:00,
2013-02-01 01:27:00,8.9,4.0,30.50,NW,309,7.0,10.0,79,0.00,,,0.00,weatherlink.com 1.10,2013-02-01 07:27:00,
2013-02-01 01:42:00,8.6,3.0,30.50,NW,309,7.0,9.0,79,0.00,,,0.00,weatherlink.com 1.10,2013-02-01 07:42:00,
2013-02-01 01:57:00,8.5,3.0,30.50,NW,313,7.0,10.0,78,0.00,,,0.00,weatherlink.com 1.10,2013-02-01 07:57:00,
2013-02-01 02:12:00,8.4,3.0,30.50,WNW,299,6.0,8.0,78,0.00,,,0.00,weatherlink.com 1.10,2013-02-01 08:12:00,
2013-02-01 02:27:00,7.7,3.0,30.50,WNW,290,4.0,10.0,79,0.00,,,0.00,weatherlink.com 1.10,2013-02-01 08:27:00,
2013-02-01 02:42:00,7.4,2.0,30.50,NW,305,7.0,9.0,79,0.00,,,0.00,weatherlink.com 1.10,2013-02-01 08:42:00,
2013-02-01 02:57:00,8.0,2.0,30.51,WNW,303,3.0,8.0,77,0.00,,,0.00,weatherlink.com 1.10,2013-02-01 08:57:00,
2013-02-01 03:12:00,7.4,2.0,30.51,WNW,299,3.0,8.0,78,0.00,,,0.00,weatherlink.com 1.10,2013-02-01 09:12:00,
2013-02-01 03:27:00,6.9,1.0,30.51,WNW,282,5.0,7.0,78,0.00,,,0.00,weatherlink.com 1.10,2013-02-01 09:27:00,
2013-02-01 03:42:00,6.6,1.0,30.51,West,275,5.0,7.0,79,0.00,,,0.00,weatherlink.com 1.10,2013-02-01 09:42:00,
2013-02-01 03:57:00,6.7,2.0,30.50,WNW,286,3.0,6.0,80,0.00,,,0.00,weatherlink.com 1.10,2013-02-01 09:57:00,
2013-02-01 04:12:00,6.8,1.0,30.50,WNW,300,1.0,4.0,78,0.00,,,0.00,weatherlink.com 1.10,2013-02-01 10:12:00,
2013-02-01 04:27:00,6.7,2.0,30.50,NNW,334,4.0,6.0,79,0.00,,,0.00,weatherlink.com 1.10,2013-02-01 10:27:00,
2013-02-01 04:43:00,6.3,1.0,30.50,NNW,335,5.0,6.0,78,0.00,,,0.00,weatherlink.com 1.10,2013-02-01 10:43:00,
2013-02-01 04:58:00,6.3,1.0,30.48,North,11,5.0,5.0,78,0.00,,,0.00,weatherlink.com 1.10,2013-02-01 10:58:00,
2013-02-01 05:13:00,6.5,1.0,30.50,NW,325,4.0,5.0,78,0.00,,,0.00,weatherlink.com 1.10,2013-02-01 11:13:00,
2013-02-01 05:28:00,6.5,1.0,30.51,NNW,336,1.0,5.0,78,0.00,,,0.00,weatherlink.com 1.10,2013-02-01 11:28:00,
2013-02-01 05:43:00,5.9,1.0,30.49,NNW,334,2.0,3.0,80,0.00,,,0.00,weatherlink.com 1.10,2013-02-01 11:43:00,
2013-02-01 05:58:00,5.9,1.0,30.50,NNW,344,4.0,4.0,80,0.00,,,0.00,weatherlink.com 1.10,2013-02-01 11:58:00,
2013-02-01 06:13:00,6.2,1.0,30.50,NNE,19,1.0,4.0,79,0.00,,,0.00,weatherlink.com 1.10,2013-02-01 12:13:00,
2013-02-01 06:28:00,6.2,1.0,30.50,NNE,18,0.0,2.0,79,0.00,,,0.00,weatherlink.com 1.10,2013-02-01 12:28:00,
2013-02-01 06:43:00,5.3,1.0,30.51,SW,214,1.0,4.0,81,0.00,,,0.00,weatherlink.com 1.10,2013-02-01 12:43:00,
2013-02-01 06:58:00,4.7,1.0,30.52,SSW,200,1.0,4.0,85,0.00,,,0.00,weatherlink.com 1.10,2013-02-01 12:58:00,
2013-02-01 07:13:00,4.5,1.0,30.52,SSW,196,2.0,4.0,86,0.00,,,0.00,weatherlink.com 1.10,2013-02-01 13:13:00,
2013-02-01 07:28:00,5.0,2.0,30.55,WSW,251,4.0,7.0,87,0.00,,,0.00,weatherlink.com 1.10,2013-02-01 13:28:00,
2013-02-01 07:43:00,6.3,3.0,30.54,SSW,205,1.0,7.0,86,0.00,,,0.00,weatherlink.com 1.10,2013-02-01 13:43:00,
2013-02-01 07:58:00,7.3,4.0,30.55,SSW,200,1.0,5.0,85,0.00,,,0.00,weatherlink.com 1.10,2013-02-01 13:58:00,
2013-02-01 08:14:00,8.1,4.0,30.55,SSW,196,3.0,6.0,83,0.00,,,0.00,weatherlink.com 1.10,2013-02-01 14:14:00,
2013-02-01 08:29:00,9.3,5.0,30.56,SW,217,2.0,6.0,81,0.00,,,0.00,weatherlink.com 1.10,2013-02-01 14:29:00,
2013-02-01 08:44:00,10.4,5.0,30.56,SSW,192,3.0,5.0,78,0.00,,,0.00,weatherlink.com 1.10,2013-02-01 14:44:00,
2013-02-01 08:59:00,11.2,4.0,30.57,SW,217,1.0,5.0,74,0.00,,,0.00,weatherlink.com 1.10,2013-02-01 14:59:00,
2013-02-01 09:14:00,12.6,5.0,30.57,SW,222,3.0,4.0,72,0.00,,,0.00,weatherlink.com 1.10,2013-02-01 15:14:00,
2013-02-01 09:29:00,13.4,5.0,30.57,SSW,209,2.0,4.0,70,0.00,,,0.00,weatherlink.com 1.10,2013-02-01 15:29:00,
2013-02-01 09:44:00,14.6,6.0,30.56,SE,146,2.0,3.0,69,0.00,,,0.00,weatherlink.com 1.10,2013-02-01 15:44:00,
2013-02-01 09:59:00,15.1,6.0,30.56,SE,138,0.0,3.0,66,0.00,,,0.00,weatherlink.com 1.10,2013-02-01 15:59:00,
2013-02-01 10:14:00,16.4,3.0,30.56,ESE,119,0.0,4.0,57,0.00,,,0.00,weatherlink.com 1.10,2013-02-01 16:14:00,
2013-02-01 10:29:00,16.8,3.0,30.55,ESE,119,1.0,4.0,56,0.00,,,0.00,weatherlink.com 1.10,2013-02-01 16:29:00,
2013-02-01 10:44:00,17.4,5.0,30.55,ENE,71,0.0,4.0,58,0.00,,,0.00,weatherlink.com 1.10,2013-02-01 16:44:00,
2013-02-01 10:59:00,18.9,6.0,30.55,ESE,113,1.0,5.0,58,0.00,,,0.00,weatherlink.com 1.10,2013-02-01 16:59:00,
2013-02-01 11:14:00,20.2,9.0,30.54,ESE,107,3.0,4.0,61,0.00,,,0.00,weatherlink.com 1.10,2013-02-01 17:14:00,
2013-02-01 11:29:00,20.9,9.0,30.53,ENE,65,1.0,4.0,59,0.00,,,0.00,weatherlink.com 1.10,2013-02-01 17:29:00,
2013-02-01 11:45:00,22.8,11.0,30.52,ENE,74,4.0,4.0,61,0.00,,,0.00,weatherlink.com 1.10,2013-02-01 17:45:00,
2013-02-01 12:00:00,24.7,10.0,30.51,ESE,103,4.0,7.0,54,0.00,,,0.00,weatherlink.com 1.10,2013-02-01 18:00:00,
2013-02-01 12:15:00,24.9,11.0,30.50,ESE,111,2.0,8.0,56,0.00,,,0.00,weatherlink.com 1.10,2013-02-01 18:15:00,
2013-02-01 12:30:00,25.1,12.0,30.48,SE,129,5.0,9.0,57,0.00,,,0.00,weatherlink.com 1.10,2013-02-01 18:30:00,
2013-02-01 12:45:00,26.5,13.0,30.47,SE,140,3.0,9.0,57,0.00,,,0.00,weatherlink.com 1.10,2013-02-01 18:45:00,
2013-02-01 13:00:00,28.4,15.0,30.47,SE,142,4.0,7.0,57,0.00,,,0.00,weatherlink.com 1.10,2013-02-01 19:00:00,
2013-02-01 13:15:00,29.1,13.0,30.47,SSW,199,5.0,9.0,52,0.00,,,0.00,weatherlink.com 1.10,2013-02-01 19:15:00,
2013-02-01 13:30:00,29.7,14.0,30.46,SE,135,4.0,8.0,53,0.00,,,0.00,weatherlink.com 1.10,2013-02-01 19:30:00,
2013-02-01 13:45:00,30.1,13.0,30.45,WSW,256,5.0,10.0,50,0.00,,,0.00,weatherlink.com 1.10,2013-02-01 19:45:00,
2013-02-01 14:00:00,31.0,14.0,30.44,SSE,154,1.0,10.0,50,0.00,,,0.00,weatherlink.com 1.10,2013-02-01 20:00:00,
2013-02-01 14:15:00,30.4,15.0,30.43,South,186,6.0,8.0,52,0.00,,,0.00,weatherlink.com 1.10,2013-02-01 20:15:00,
2013-02-01 14:30:00,32.2,17.0,30.43,SW,221,5.0,10.0,53,0.00,,,0.00,weatherlink.com 1.10,2013-02-01 20:30:00,
2013-02-01 14:45:00,32.6,17.0,30.41,South,177,4.0,12.0,52,0.00,,,0.00,weatherlink.com 1.10,2013-02-01 20:45:00,
2013-02-01 15:01:00,30.8,15.0,30.41,South,188,1.0,11.0,53,0.00,,,0.00,weatherlink.com 1.10,2013-02-01 21:01:00,
2013-02-01 15:16:00,30.3,16.0,30.41,SE,132,4.0,9.0,55,0.00,,,0.00,weatherlink.com 1.10,2013-02-01 21:16:00,
2013-02-01 15:31:00,29.8,15.0,30.40,South,173,7.0,11.0,54,0.00,,,0.00,weatherlink.com 1.10,2013-02-01 21:31:00,
2013-02-01 15:46:00,30.1,15.0,30.40,SE,136,5.0,9.0,53,0.00,,,0.00,weatherlink.com 1.10,2013-02-01 21:46:00,
2013-02-01 16:01:00,30.4,15.0,30.40,SSE,163,7.0,10.0,54,0.00,,,0.00,weatherlink.com 1.10,2013-02-01 22:01:00,
2013-02-01 16:16:00,30.2,15.0,30.39,South,174,6.0,12.0,53,0.00,,,0.00,weatherlink.com 1.10,2013-02-01 22:16:00,
2013-02-01 16:31:00,30.1,15.0,30.38,SSE,157,3.0,9.0,53,0.00,,,0.00,weatherlink.com 1.10,2013-02-01 22:31:00,
2013-02-01 16:46:00,29.8,14.0,30.38,SE,144,2.0,9.0,52,0.00,,,0.00,weatherlink.com 1.10,2013-02-01 22:46:00,
2013-02-01 17:01:00,29.4,14.0,30.38,SSE,152,9.0,10.0,52,0.00,,,0.00,weatherlink.com 1.10,2013-02-01 23:01:00,
2013-02-01 17:16:00,29.1,14.0,30.37,SSE,157,6.0,12.0,54,0.00,,,0.00,weatherlink.com 1.10,2013-02-01 23:16:00,
2013-02-01 17:31:00,28.9,14.0,30.37,SE,146,3.0,8.0,54,0.00,,,0.00,weatherlink.com 1.10,2013-02-01 23:31:00,
2013-02-01 17:46:00,28.8,15.0,30.36,SE,142,2.0,7.0,57,0.00,,,0.00,weatherlink.com 1.10,2013-02-01 23:46:00,
2013-02-01 18:01:00,28.7,15.0,30.35,SE,142,5.0,10.0,56,0.00,,,0.00,weatherlink.com 1.10,2013-02-02 00:01:00,
2013-02-01 18:16:00,28.7,15.0,30.34,SSE,148,6.0,9.0,56,0.00,,,0.00,weatherlink.com 1.10,2013-02-02 00:16:00,
2013-02-01 18:32:00,28.7,15.0,30.33,SSE,157,4.0,10.0,56,0.00,,,0.00,weatherlink.com 1.10,2013-02-02 00:32:00,
2013-02-01 18:47:00,28.8,14.0,30.32,ESE,122,5.0,12.0,55,0.00,,,0.00,weatherlink.com 1.10,2013-02-02 00:47:00,
2013-02-01 19:02:00,28.6,13.0,30.32,SE,130,6.0,15.0,52,0.00,,,0.00,weatherlink.com 1.10,2013-02-02 01:02:00,
2013-02-01 19:17:00,28.5,12.0,30.32,SSE,150,6.0,16.0,51,0.00,,,0.00,weatherlink.com 1.10,2013-02-02 01:17:00,
2013-02-01 19:32:00,28.5,12.0,30.31,SSE,153,10.0,13.0,51,0.00,,,0.00,weatherlink.com 1.10,2013-02-02 01:32:00,
2013-02-01 19:47:00,28.7,13.0,30.31,SE,146,9.0,13.0,52,0.00,,,0.00,weatherlink.com 1.10,2013-02-02 01:47:00,
2013-02-01 20:02:00,28.9,13.0,30.32,SE,138,7.0,14.0,52,0.00,,,0.00,weatherlink.com 1.10,2013-02-02 02:02:00,
2013-02-01 20:17:00,29.0,14.0,30.31,SSE,163,11.0,14.0,53,0.00,,,0.00,weatherlink.com 1.10,2013-02-02 02:17:00,
2013-02-01 20:32:00,29.0,13.0,30.30,South,175,9.0,14.0,52,0.00,,,0.00,weatherlink.com 1.10,2013-02-02 02:32:00,
2013-02-01 20:47:00,29.2,13.0,30.30,SE,143,8.0,11.0,52,0.00,,,0.00,weatherlink.com 1.10,2013-02-02 02:47:00,
2013-02-01 21:02:00,29.3,14.0,30.30,South,173,4.0,14.0,52,0.00,,,0.00,weatherlink.com 1.10,2013-02-02 03:02:00,
2013-02-01 21:17:00,29.4,13.0,30.31,SSW,202,4.0,11.0,51,0.00,,,0.00,weatherlink.com 1.10,2013-02-02 03:17:00,
2013-02-01 21:32:00,29.1,13.0,30.33,South,190,3.0,9.0,52,0.00,,,0.00,weatherlink.com 1.10,2013-02-02 03:32:00,
2013-02-01 21:48:00,28.5,14.0,30.34,SSW,195,5.0,8.0,56,0.00,,,0.00,weatherlink.com 1.10,2013-02-02 03:48:00,
2013-02-01 22:03:00,28.0,14.0,30.35,SSW,202,2.0,6.0,56,0.00,,,0.00,weatherlink.com 1.10,2013-02-02 04:03:00,
2013-02-01 22:18:00,27.6,14.0,30.35,SSW,202,1.0,4.0,57,0.00,,,0.00,weatherlink.com 1.10,2013-02-02 04:18:00,
2013-02-01 22:33:00,27.0,14.0,30.34,SSE,163,3.0,6.0,59,0.00,,,0.00,weatherlink.com 1.10,2013-02-02 04:33:00,
2013-02-01 22:48:00,26.9,15.0,30.34,SSE,151,2.0,6.0,60,0.00,,,0.00,weatherlink.com 1.10,2013-02-02 04:48:00,
2013-02-01 23:03:00,27.0,15.0,30.34,SE,145,4.0,7.0,61,0.00,,,0.00,weatherlink.com 1.10,2013-02-02 05:03:00,
2013-02-01 23:18:00,27.0,15.0,30.33,SSE,150,3.0,9.0,62,0.00,,,0.00,weatherlink.com 1.10,2013-02-02 05:18:00,
2013-02-01 23:33:00,27.1,15.0,30.32,SSE,165,4.0,9.0,61,0.00,,,0.00,weatherlink.com 1.10,2013-02-02 05:33:00,
2013-02-01 23:48:00,27.2,16.0,30.31,SSE,161,3.0,9.0,62,0.00,,,0.00,weatherlink.com 1.10,2013-02-02 05:48:00,